Terminal Aerodrome Forecast
Issued by NWS Jackson, KY

Home | Current Version | Previous Version | Text Only | Print | Product List | Glossary On
Versions: 1 2 3 4 5 6 7 8 9 10 11 12 13 14 15 16 17
000
FTUS43 KJKL 220500
TAFLOZ
TAF
KLOZ 220530Z 2206/2306 35005KT P6SM SCT035 BKN050
     FM221000 35004KT P6SM OVC025
     FM221200 36003KT P6SM OVC015
     FM221400 35003KT P6SM OVC025
     FM221600 02005KT P6SM SCT025 BKN035
     FM230300 03003KT P6SM BKN030=

USA.gov is the U.S. government's official web portal to all federal, state and local government web resources and services.